Terminal Aerodrome Forecast
Issued by NWS Sterling, VA

Current Version | Previous Version | Text Only | Print | Product List | Glossary On
Versions: 1 2 3 4 5 6 7 8 9 10 11 12 13 14 15 16 17 18 19 20
188
FTUS41 KLWX 260531
TAFBWI
TAF
KBWI 260531Z 2606/2712 33006KT 3SM BR OVC005
     FM261600 33005KT 3SM BR BKN025
     FM261900 33005KT P6SM SCT035
     FM270200 VRB03KT P6SM SCT250
     FM270600 00000KT 3SM BR SCT040=

USA.gov is the U.S. government's official web portal to all federal, state and local government web resources and services.